Time;durP1;ratioP1;P1;durP2;ratioP2;P2;SDS_P1;SDS_P2;PMS_P1;PMS_P2;Temp;Humidity;BMP_temperature;BMP_pressure;BME280_temperature;BME280_humidity;BME280_pressure;Samples;Min_cycle;Max_cycle;Signal;HPM_P1;HPM_P2
2023/07/15 00:00:58;;;;;;;3.67;2.80;;;;;;;22.42;48.94;100660.47;4958267;28;97151;-44
2023/07/15 00:03:23;;;;;;;2.73;2.40;;;;;;;22.37;48.85;100659.38;4958606;28;97555;-43
2023/07/15 00:05:49;;;;;;;3.50;3.20;;;;;;;22.33;48.73;100647.84;4959395;28;97363;-45
2023/07/15 00:08:15;;;;;;;3.33;2.63;;;;;;;22.30;48.81;100648.97;4958403;28;97844;-44
2023/07/15 00:10:45;;;;;;;6.63;3.27;;;;;;;22.28;48.90;100646.00;4958585;28;97407;-44
2023/07/15 00:13:16;;;;;;;3.47;2.83;;;;;;;22.26;48.91;100645.84;4957884;28;97284;-46
2023/07/15 00:15:44;;;;;;;3.43;3.13;;;;;;;22.24;48.79;100651.28;4960053;28;97460;-44
2023/07/15 00:18:11;;;;;;;2.97;2.77;;;;;;;22.22;48.59;100644.75;4955383;28;97327;-45
2023/07/15 00:20:36;;;;;;;3.30;3.00;;;;;;;22.17;48.90;100635.28;4959515;28;97344;-43
2023/07/15 00:23:12;;;;;;;2.40;2.27;;;;;;;22.14;48.85;100636.44;4959533;28;97435;-42
2023/07/15 00:25:38;;;;;;;2.80;2.60;;;;;;;22.10;48.95;100636.09;4959218;28;97346;-43
2023/07/15 00:28:05;;;;;;;5.43;2.70;;;;;;;22.07;48.98;100631.63;4958482;28;97219;-45
2023/07/15 00:30:31;;;;;;;3.07;2.73;;;;;;;22.04;49.20;100629.97;4958475;28;97854;-43
2023/07/15 00:32:56;;;;;;;3.03;2.47;;;;;;;22.06;49.17;100635.72;4960884;28;97669;-43
2023/07/15 00:35:28;;;;;;;2.60;2.40;;;;;;;22.06;49.18;100629.41;4960443;28;97246;-42
2023/07/15 00:37:55;;;;;;;3.10;2.50;;;;;;;22.05;49.36;100625.09;4961269;28;97754;-42
2023/07/15 00:40:20;;;;;;;3.00;2.80;;;;;;;22.02;49.42;100621.38;4957985;28;97647;-43
2023/07/15 00:43:23;;;;;;;5.37;2.47;;;;;;;22.02;49.87;100623.44;4959944;28;97132;-45
2023/07/15 00:46:28;;;;;;;2.97;2.67;;;;;;;21.94;50.14;100617.91;4958190;28;97457;-42
2023/07/15 00:48:58;;;;;;;2.57;2.23;;;;;;;21.94;49.74;100606.72;4959029;28;98287;-44
2023/07/15 00:51:25;;;;;;;3.33;2.60;;;;;;;21.95;49.61;100618.66;4958852;28;96734;-43
2023/07/15 00:53:53;;;;;;;2.70;2.50;;;;;;;21.94;49.44;100603.16;4958461;28;97229;-43
2023/07/15 00:56:20;;;;;;;5.63;2.80;;;;;;;21.92;49.63;100608.59;4961503;28;97050;-44
2023/07/15 00:58:46;;;;;;;3.13;2.43;;;;;;;21.94;49.52;100603.91;4962946;28;97612;-43
2023/07/15 01:01:12;;;;;;;2.80;2.60;;;;;;;21.92;49.37;100600.19;4961744;28;97298;-43
2023/07/15 01:03:40;;;;;;;2.83;2.63;;;;;;;21.87;49.64;100603.97;4962687;28;100578;-46
2023/07/15 01:06:06;;;;;;;3.10;2.90;;;;;;;21.84;49.63;100593.91;4962458;28;97427;-44
2023/07/15 01:08:31;;;;;;;3.03;2.73;;;;;;;21.82;49.75;100596.53;4962901;28;97203;-42
2023/07/15 01:10:56;;;;;;;4.00;2.30;;;;;;;21.80;49.59;100585.88;4962941;28;97320;-44
2023/07/15 01:13:22;;;;;;;2.87;2.67;;;;;;;21.80;49.26;100587.94;4962483;28;100321;-45
2023/07/15 01:15:47;;;;;;;2.43;2.23;;;;;;;21.81;49.35;100581.03;4961883;28;97258;-46
2023/07/15 01:18:13;;;;;;;2.87;2.67;;;;;;;21.81;49.46;100576.16;4961958;28;98546;-46
2023/07/15 01:20:38;;;;;;;2.87;2.67;;;;;;;21.81;49.58;100576.16;4961915;28;97768;-42
2023/07/15 01:23:04;;;;;;;2.70;2.50;;;;;;;21.79;49.38;100578.06;4963466;28;97002;-44
2023/07/15 01:25:29;;;;;;;3.10;2.40;;;;;;;21.77;49.37;100575.84;4961407;28;97248;-45
2023/07/15 01:27:54;;;;;;;2.97;2.50;;;;;;;21.74;49.21;100571.38;4962672;28;97699;-42
2023/07/15 01:30:19;;;;;;;2.50;2.30;;;;;;;21.73;49.42;100557.94;4962822;28;104084;-44
2023/07/15 01:32:45;;;;;;;2.90;2.67;;;;;;;21.72;49.71;100560.00;4963561;28;101283;-43
2023/07/15 01:35:10;;;;;;;3.00;2.77;;;;;;;21.70;49.43;100564.69;4962199;28;97633;-45
2023/07/15 01:37:35;;;;;;;3.80;2.80;;;;;;;21.67;49.62;100560.97;4961483;28;111970;-45
2023/07/15 01:40:02;;;;;;;2.60;2.40;;;;;;;21.64;49.55;100556.53;4964337;28;96967;-42
2023/07/15 01:42:27;;;;;;;3.33;3.00;;;;;;;21.62;49.61;100551.47;4963818;28;97264;-43
2023/07/15 01:44:54;;;;;;;2.97;2.77;;;;;;;21.59;49.57;100549.09;4962894;28;97223;-42
2023/07/15 01:47:20;;;;;;;2.77;2.57;;;;;;;21.60;49.69;100550.59;4961344;28;98035;-42
2023/07/15 01:49:45;;;;;;;3.10;2.80;;;;;;;21.56;49.75;100541.81;4961190;28;97182;-42
2023/07/15 01:52:10;;;;;;;2.27;2.17;;;;;;;21.51;49.99;100554.72;4961116;28;96985;-46
2023/07/15 01:54:36;;;;;;;2.03;1.93;;;;;;;21.53;49.96;100540.94;4962938;28;97111;-42
2023/07/15 01:57:01;;;;;;;3.37;2.30;;;;;;;21.53;50.09;100542.97;4960819;28;108838;-42
2023/07/15 01:59:26;;;;;;;2.57;2.30;;;;;;;21.48;50.08;100544.69;4961191;28;97674;-45
2023/07/15 02:01:55;;;;;;;2.53;2.33;;;;;;;21.46;50.14;100538.19;4962292;28;97168;-45
2023/07/15 02:04:20;;;;;;;4.10;2.70;;;;;;;21.44;50.10;100541.56;4961633;28;97143;-43
2023/07/15 02:06:45;;;;;;;2.63;2.43;;;;;;;21.44;50.10;100535.19;4960743;28;106247;-46
2023/07/15 02:09:11;;;;;;;2.70;2.40;;;;;;;21.44;50.13;100538.00;4959843;28;97187;-45
2023/07/15 02:11:36;;;;;;;2.67;2.23;;;;;;;21.43;50.24;100530.91;4961333;28;99920;-42
2023/07/15 02:14:02;;;;;;;2.57;2.37;;;;;;;21.44;49.96;100527.56;4961343;28;97356;-42
2023/07/15 02:16:27;;;;;;;3.30;2.20;;;;;;;21.41;49.97;100520.28;4961158;28;97146;-45
2023/07/15 02:18:52;;;;;;;2.97;2.50;;;;;;;21.40;49.76;100518.81;4961497;28;97273;-42
2023/07/15 02:21:19;;;;;;;4.13;2.53;;;;;;;21.43;50.04;100525.31;4962453;28;97278;-43
2023/07/15 02:23:44;;;;;;;2.73;2.37;;;;;;;21.43;49.93;100512.06;4961540;28;97143;-43
2023/07/15 02:26:10;;;;;;;5.77;2.30;;;;;;;21.43;49.79;100509.25;4960678;28;97442;-46
2023/07/15 02:28:35;;;;;;;2.80;2.30;;;;;;;21.46;49.81;100507.38;4960972;28;101903;-45
2023/07/15 02:31:00;;;;;;;2.53;2.30;;;;;;;21.46;49.79;100496.94;4962003;28;100494;-46
2023/07/15 02:33:26;;;;;;;2.30;2.10;;;;;;;21.46;49.76;100493.38;4961947;28;99098;-44
2023/07/15 02:35:51;;;;;;;2.10;1.90;;;;;;;21.43;49.67;100492.47;4962645;28;97444;-43
2023/07/15 02:38:17;;;;;;;2.00;1.90;;;;;;;21.42;49.71;100491.00;4959231;28;97437;-45
2023/07/15 02:40:42;;;;;;;2.37;2.20;;;;;;;21.39;49.65;100485.78;4961695;28;97077;-45
2023/07/15 02:43:07;;;;;;;2.20;2.00;;;;;;;21.36;49.77;100479.28;4960857;28;101755;-45
2023/07/15 02:45:33;;;;;;;2.23;2.03;;;;;;;21.37;49.86;100471.63;4961629;28;96987;-42
2023/07/15 02:47:58;;;;;;;3.97;2.37;;;;;;;21.37;49.77;100480.75;4961643;28;97644;-44
2023/07/15 02:50:23;;;;;;;2.73;2.00;;;;;;;21.36;49.60;100479.28;4959930;28;99465;-43
2023/07/15 02:52:49;;;;;;;2.00;1.83;;;;;;;21.34;50.00;100478.38;4960635;28;96899;-43
2023/07/15 02:55:14;;;;;;;2.30;2.10;;;;;;;21.29;50.10;100470.94;4959278;28;97833;-44
2023/07/15 02:57:40;;;;;;;2.40;2.20;;;;;;;21.29;50.07;100468.16;4961089;28;97691;-44
2023/07/15 03:00:13;;;;;;;2.10;1.90;;;;;;;21.28;50.07;100463.84;4959674;28;97224;-46
2023/07/15 03:02:38;;;;;;;2.33;2.13;;;;;;;21.29;50.29;100454.91;4961124;28;97074;-42
2023/07/15 03:05:05;;;;;;;2.80;2.40;;;;;;;21.31;50.25;100457.88;4960624;28;96867;-45
2023/07/15 03:07:31;;;;;;;2.67;2.10;;;;;;;21.31;50.41;100459.94;4953135;28;97302;-43
2023/07/15 03:09:56;;;;;;;2.53;2.33;;;;;;;21.30;50.45;100461.22;4960217;28;97270;-43
2023/07/15 03:12:22;;;;;;;4.33;2.23;;;;;;;21.28;50.09;100459.00;4961386;28;97668;-43
2023/07/15 03:14:47;;;;;;;2.10;2.00;;;;;;;21.30;50.15;100459.19;4961326;28;108135;-43
2023/07/15 03:17:15;;;;;;;2.90;2.53;;;;;;;21.26;50.29;100464.44;4959978;28;97386;-46
2023/07/15 03:19:40;;;;;;;2.30;2.10;;;;;;;21.26;50.18;100449.69;4961303;28;97190;-45
2023/07/15 03:22:05;;;;;;;3.90;2.73;;;;;;;21.31;50.14;100459.94;4959715;28;97540;-45
2023/07/15 03:24:31;;;;;;;2.17;1.97;;;;;;;21.27;50.06;100463.13;4960167;28;97885;-44
2023/07/15 03:26:56;;;;;;;2.30;2.10;;;;;;;21.27;50.30;100462.38;4961558;28;97092;-43
2023/07/15 03:29:24;;;;;;;2.20;2.07;;;;;;;21.23;50.34;100453.66;4959706;28;97329;-42
2023/07/15 03:31:50;;;;;;;3.53;2.40;;;;;;;21.22;50.53;100463.34;4961392;28;97738;-43
2023/07/15 03:34:15;;;;;;;3.20;2.30;;;;;;;21.16;50.53;100466.38;4958990;28;106173;-42
2023/07/15 03:36:40;;;;;;;2.43;2.23;;;;;;;21.13;50.59;100467.53;4960419;28;97493;-45
2023/07/15 03:39:06;;;;;;;2.07;1.97;;;;;;;21.14;50.55;100468.25;4959408;28;96846;-45
2023/07/15 03:41:35;;;;;;;3.00;2.60;;;;;;;21.15;50.70;100466.94;4959567;28;97523;-42
2023/07/15 03:44:01;;;;;;;2.40;2.20;;;;;;;21.16;50.60;100471.22;4959785;28;97093;-44
2023/07/15 03:46:26;;;;;;;2.43;2.20;;;;;;;21.15;50.55;100466.94;4959376;28;97618;-43
2023/07/15 03:48:51;;;;;;;2.07;1.87;;;;;;;21.13;50.42;100466.78;4958920;28;96956;-43
2023/07/15 03:51:17;;;;;;;2.63;2.40;;;;;;;21.12;50.61;100468.09;4959753;28;97632;-42
2023/07/15 03:53:42;;;;;;;4.33;2.60;;;;;;;21.10;50.43;100465.84;4960300;28;97256;-45
2023/07/15 03:56:07;;;;;;;3.00;2.70;;;;;;;21.08;50.54;100464.97;4958534;28;109615;-45
2023/07/15 03:58:33;;;;;;;2.43;2.23;;;;;;;21.05;50.49;100460.50;4960927;28;96742;-43
2023/07/15 04:00:58;;;;;;;2.97;2.67;;;;;;;21.02;50.37;100472.78;4961058;28;97134;-42
2023/07/15 04:03:24;;;;;;;2.20;2.00;;;;;;;21.01;50.23;100458.06;4960459;28;97268;-45
2023/07/15 04:05:49;;;;;;;2.37;2.17;;;;;;;21.01;50.54;100466.47;4959951;28;97055;-41
2023/07/15 04:08:15;;;;;;;2.43;1.80;;;;;;;20.98;50.60;100464.81;4958664;28;97145;-44
2023/07/15 04:10:40;;;;;;;2.53;2.33;;;;;;;20.96;50.67;100459.03;4959694;28;97497;-42
2023/07/15 04:13:06;;;;;;;2.07;1.97;;;;;;;20.96;50.59;100461.09;4959730;28;97385;-46
2023/07/15 04:15:31;;;;;;;2.87;2.50;;;;;;;20.97;50.87;100462.59;4959259;28;97006;-44
2023/07/15 04:17:56;;;;;;;2.87;2.40;;;;;;;20.98;50.49;100467.59;4958196;28;97181;-44
2023/07/15 04:20:21;;;;;;;6.50;2.90;;;;;;;20.98;50.49;100455.66;4958390;28;97285;-43
2023/07/15 04:22:47;;;;;;;2.77;2.13;;;;;;;20.92;50.45;100456.63;4959944;28;97245;-43
2023/07/15 04:25:12;;;;;;;3.80;2.00;;;;;;;20.88;50.57;100459.06;4957679;28;97385;-46
2023/07/15 04:27:38;;;;;;;3.40;2.07;;;;;;;20.84;50.70;100453.13;4958848;28;97390;-44
2023/07/15 04:30:05;;;;;;;2.87;2.03;;;;;;;20.83;50.92;100460.06;4959526;28;97271;-45
2023/07/15 04:32:30;;;;;;;3.47;2.67;;;;;;;20.86;51.04;100477.72;4962062;28;101335;-45
2023/07/15 04:34:55;;;;;;;2.80;2.27;;;;;;;20.85;51.02;100454.63;4963593;28;97259;-42
2023/07/15 04:37:22;;;;;;;8.13;2.30;;;;;;;20.90;50.96;100459.25;4961542;28;102276;-44
2023/07/15 04:39:47;;;;;;;2.57;2.37;;;;;;;20.95;50.77;100459.63;4960470;28;97136;-42
2023/07/15 04:42:13;;;;;;;2.50;2.30;;;;;;;20.95;51.00;100454.03;4961664;28;97539;-44
2023/07/15 04:44:38;;;;;;;2.00;1.80;;;;;;;20.96;51.00;100456.25;4961464;28;97688;-44
2023/07/15 04:47:04;;;;;;;2.10;2.00;;;;;;;20.97;50.91;100454.19;4965114;28;98185;-45
2023/07/15 04:49:29;;;;;;;2.37;2.17;;;;;;;20.99;51.11;100460.69;4961686;28;97695;-44
2023/07/15 04:51:55;;;;;;;2.53;2.33;;;;;;;21.01;51.19;100457.31;4962715;28;97367;-43
2023/07/15 04:54:20;;;;;;;3.60;2.60;;;;;;;21.03;51.37;100451.91;4962211;28;97367;-42
2023/07/15 04:56:45;;;;;;;2.20;2.00;;;;;;;21.04;51.36;100459.00;4963720;28;97423;-43
2023/07/15 04:59:11;;;;;;;2.20;2.10;;;;;;;21.05;51.69;100455.66;4961677;28;96903;-45
2023/07/15 05:01:36;;;;;;;5.10;2.10;;;;;;;21.09;51.50;100460.84;4963130;28;97319;-43
2023/07/15 05:04:03;;;;;;;3.07;1.80;;;;;;;21.12;51.68;100460.44;4963065;28;97431;-45
2023/07/15 05:06:28;;;;;;;1.93;1.83;;;;;;;21.17;51.76;100465.06;4960544;28;96780;-43
2023/07/15 05:08:55;;;;;;;2.83;2.20;;;;;;;21.20;51.65;100454.78;4962280;28;97183;-43
2023/07/15 05:11:20;;;;;;;2.33;2.13;;;;;;;21.27;51.81;100451.19;4964166;28;97377;-43
2023/07/15 05:13:48;;;;;;;2.37;2.17;;;;;;;21.29;51.68;100446.50;4962764;28;97184;-44
2023/07/15 05:16:14;;;;;;;2.50;2.30;;;;;;;21.36;51.67;100447.75;4961464;28;97358;-44
2023/07/15 05:18:40;;;;;;;2.00;1.80;;;;;;;21.43;51.59;100446.94;4963881;28;97466;-42
2023/07/15 05:21:06;;;;;;;2.93;2.63;;;;;;;21.45;51.42;100447.09;4963986;28;97283;-45
2023/07/15 05:23:31;;;;;;;7.47;2.40;;;;;;;21.53;51.29;100445.75;4962089;28;97690;-43
2023/07/15 05:26:00;;;;;;;2.97;2.43;;;;;;;21.60;51.20;100456.09;4962381;28;97291;-44
2023/07/15 05:28:30;;;;;;;2.80;2.20;;;;;;;21.67;51.08;100453.81;4960391;28;97605;-42
2023/07/15 05:31:00;;;;;;;1.77;1.67;;;;;;;21.77;51.04;100463.81;4962617;28;98156;-44
2023/07/15 05:33:25;;;;;;;2.53;2.00;;;;;;;21.85;50.91;100458.13;4961152;28;97309;-44
2023/07/15 05:35:51;;;;;;;2.40;2.20;;;;;;;21.95;50.87;100456.19;4961436;28;96704;-45
2023/07/15 05:38:16;;;;;;;2.20;2.03;;;;;;;22.02;50.74;100460.94;4960797;28;97038;-43
2023/07/15 05:40:41;;;;;;;2.33;1.87;;;;;;;22.10;50.55;100464.41;4961521;28;97290;-43
2023/07/15 05:43:07;;;;;;;3.43;2.30;;;;;;;22.22;50.59;100468.94;4961975;28;97901;-46
2023/07/15 05:45:33;;;;;;;1.90;1.80;;;;;;;22.35;50.31;100465.78;4961698;28;97099;-43
2023/07/15 05:47:58;;;;;;;1.87;1.77;;;;;;;22.53;49.97;100465.75;4964005;28;97312;-43
2023/07/15 05:50:23;;;;;;;1.70;1.60;;;;;;;22.65;50.05;100466.75;4961271;28;96726;-42
2023/07/15 05:52:49;;;;;;;2.87;2.00;;;;;;;22.76;49.86;100466.94;4961281;28;110717;-42
2023/07/15 05:55:14;;;;;;;1.80;1.70;;;;;;;22.87;49.98;100472.03;4961355;28;96999;-45
2023/07/15 05:57:39;;;;;;;2.60;1.90;;;;;;;22.94;49.79;100473.25;4963555;28;99373;-44
2023/07/15 06:00:08;;;;;;;2.30;2.13;;;;;;;23.00;49.98;100465.28;4961407;28;111531;-45
2023/07/15 06:02:34;;;;;;;4.40;1.60;;;;;;;23.08;49.99;100463.88;4959754;28;98465;-43
2023/07/15 06:04:59;;;;;;;1.97;1.87;;;;;;;23.16;50.04;100460.94;4960517;28;97123;-42
2023/07/15 06:07:24;;;;;;;1.70;1.60;;;;;;;23.21;50.02;100457.13;4959749;28;97107;-43
2023/07/15 06:09:53;;;;;;;1.97;1.77;;;;;;;23.26;50.03;100453.31;4960335;28;111377;-44
2023/07/15 06:12:18;;;;;;;1.90;1.80;;;;;;;23.35;49.86;100463.84;4960576;28;97352;-41
2023/07/15 06:14:44;;;;;;;1.93;1.83;;;;;;;23.43;49.51;100455.28;4961512;28;97494;-44
2023/07/15 06:17:09;;;;;;;2.63;1.70;;;;;;;23.52;49.16;100469.38;4960092;28;97063;-45
2023/07/15 06:19:35;;;;;;;1.97;1.77;;;;;;;23.63;49.39;100460.34;4962733;28;108406;-43
2023/07/15 06:22:01;;;;;;;2.63;2.10;;;;;;;23.71;49.13;100455.34;4961563;28;97195;-44
2023/07/15 06:24:26;;;;;;;2.50;1.97;;;;;;;23.80;49.10;100454.63;4961126;28;97048;-44
2023/07/15 06:26:51;;;;;;;2.60;2.20;;;;;;;23.88;49.16;100456.53;4962266;28;97304;-43
2023/07/15 06:29:16;;;;;;;4.63;1.90;;;;;;;23.97;48.88;100455.81;4962028;28;100271;-42
2023/07/15 06:31:42;;;;;;;1.80;1.70;;;;;;;24.10;48.64;100455.41;4961697;28;99635;-44
2023/07/15 06:34:07;;;;;;;1.77;1.67;;;;;;;24.20;48.79;100445.63;4962972;28;99543;-46
2023/07/15 06:36:32;;;;;;;2.43;1.80;;;;;;;24.30;48.23;100448.44;4960759;28;100845;-42
2023/07/15 06:38:58;;;;;;;2.13;1.90;;;;;;;24.40;48.55;100447.09;4960565;28;97553;-43
2023/07/15 06:41:23;;;;;;;4.73;1.40;;;;;;;24.53;48.26;100443.81;4960692;28;97714;-42
2023/07/15 06:43:48;;;;;;;2.27;1.67;;;;;;;24.63;48.15;100438.16;4960550;28;97347;-43
2023/07/15 06:46:14;;;;;;;2.80;1.70;;;;;;;24.73;48.17;100440.94;4961793;28;101275;-44
2023/07/15 06:48:39;;;;;;;1.90;1.33;;;;;;;24.82;48.08;100435.31;4963502;28;97299;-45
2023/07/15 06:51:04;;;;;;;2.50;1.60;;;;;;;24.95;47.83;100445.34;4962128;28;109212;-47
2023/07/15 06:53:30;;;;;;;1.70;1.60;;;;;;;25.05;47.95;100431.97;4960144;28;97116;-42
2023/07/15 06:55:55;;;;;;;2.30;2.10;;;;;;;25.15;47.81;100427.78;4962656;28;97547;-42
2023/07/15 06:58:20;;;;;;;1.70;1.50;;;;;;;25.27;47.54;100441.94;4959930;28;97310;-46
2023/07/15 07:00:45;;;;;;;1.73;1.63;;;;;;;25.37;47.27;100422.91;4961687;28;97462;-44
2023/07/15 07:03:11;;;;;;;1.40;1.30;;;;;;;25.49;46.72;100428.66;4961291;28;97102;-45
2023/07/15 07:05:36;;;;;;;3.10;1.63;;;;;;;25.64;46.32;100434.59;4959541;28;96873;-43
2023/07/15 07:08:02;;;;;;;2.57;1.23;;;;;;;25.80;46.21;100437.75;4961301;28;98426;-43
2023/07/15 07:10:27;;;;;;;1.57;1.27;;;;;;;25.97;46.18;100426.94;4959920;28;97363;-46
2023/07/15 07:12:52;;;;;;;4.17;1.83;;;;;;;26.09;45.64;100429.84;4962545;28;96884;-44
2023/07/15 07:15:18;;;;;;;2.83;1.40;;;;;;;26.24;45.47;100432.22;4961478;28;97631;-44
2023/07/15 07:17:43;;;;;;;1.10;1.00;;;;;;;26.38;45.22;100427.50;4962019;28;97346;-43
2023/07/15 07:20:09;;;;;;;2.97;1.60;;;;;;;26.53;44.63;100429.13;4960146;28;98565;-45
2023/07/15 07:22:34;;;;;;;4.80;1.47;;;;;;;26.66;44.13;100434.91;4960855;28;97121;-43
2023/07/15 07:24:59;;;;;;;1.67;1.57;;;;;;;26.80;44.15;100437.16;4960830;28;97127;-45
2023/07/15 07:27:25;;;;;;;1.60;1.50;;;;;;;26.92;43.69;100423.78;4959361;28;99589;-43
2023/07/15 07:29:52;;;;;;;1.90;1.30;;;;;;;27.05;43.56;100431.66;4960514;28;99708;-43
2023/07/15 07:32:17;;;;;;;1.67;1.57;;;;;;;27.16;43.26;100428.09;4960366;28;96789;-43
2023/07/15 07:34:43;;;;;;;2.20;1.20;;;;;;;27.27;43.27;100424.50;4961470;28;97594;-43
2023/07/15 07:37:08;;;;;;;1.50;1.40;;;;;;;27.41;43.20;100419.75;4960606;28;97861;-46
2023/07/15 07:39:33;;;;;;;1.70;1.10;;;;;;;27.52;43.22;100418.25;4959116;28;97706;-43
2023/07/15 07:41:59;;;;;;;2.37;1.70;;;;;;;27.62;43.04;100428.06;4960987;28;97513;-42
2023/07/15 07:44:24;;;;;;;1.40;1.30;;;;;;;27.72;42.48;100427.91;4960311;28;97286;-43
2023/07/15 07:46:49;;;;;;;1.50;1.30;;;;;;;27.84;42.48;100426.50;4960298;28;97321;-43
2023/07/15 07:49:15;;;;;;;1.80;1.40;;;;;;;27.93;42.60;100419.97;4959315;28;97138;-46
2023/07/15 07:51:40;;;;;;;1.50;1.40;;;;;;;28.03;42.55;100412.06;4960246;28;97284;-46
2023/07/15 07:54:06;;;;;;;2.23;2.03;;;;;;;28.12;42.24;100422.50;4960944;28;97624;-44
2023/07/15 07:56:31;;;;;;;1.90;1.30;;;;;;;28.24;42.25;100416.03;4961043;28;99162;-44
2023/07/15 07:58:58;;;;;;;1.67;1.23;;;;;;;28.33;42.13;100417.97;4961360;28;100463;-44
2023/07/15 08:01:24;;;;;;;2.17;1.57;;;;;;;28.43;41.65;100410.03;4959782;28;97403;-45
2023/07/15 08:03:49;;;;;;;1.80;1.50;;;;;;;28.54;41.13;100414.88;4956247;28;96923;-44
2023/07/15 08:06:15;;;;;;;1.80;1.70;;;;;;;28.67;41.38;100414.19;4961092;28;97114;-43
2023/07/15 08:08:41;;;;;;;1.57;1.47;;;;;;;28.76;41.39;100407.63;4963909;28;97675;-44
2023/07/15 08:11:07;;;;;;;1.37;1.27;;;;;;;28.84;41.58;100403.13;4942535;28;97584;-46
2023/07/15 08:13:32;;;;;;;1.50;1.23;;;;;;;28.90;41.50;100400.59;4962497;28;97212;-43
2023/07/15 08:15:59;;;;;;;6.40;1.40;;;;;;;28.98;41.50;100408.78;4959929;28;106431;-43
2023/07/15 08:18:24;;;;;;;1.53;1.20;;;;;;;29.06;40.97;100405.63;4961190;28;97239;-45
2023/07/15 08:20:51;;;;;;;2.30;1.13;;;;;;;29.14;41.32;100401.13;4954133;28;97554;-44
2023/07/15 08:23:16;;;;;;;2.50;1.30;;;;;;;29.25;40.52;100403.16;4953838;28;96985;-45
2023/07/15 08:25:42;;;;;;;1.20;1.10;;;;;;;29.35;40.08;100409.34;4957807;28;98196;-45
2023/07/15 08:28:07;;;;;;;2.63;1.60;;;;;;;29.46;40.14;100402.81;4961965;28;97878;-46
2023/07/15 08:30:36;;;;;;;1.40;1.30;;;;;;;29.55;40.01;100410.34;4960183;28;97097;-44
2023/07/15 08:33:02;;;;;;;1.30;1.20;;;;;;;29.64;39.69;100415.06;4961538;28;97273;-43
2023/07/15 08:35:27;;;;;;;1.63;1.50;;;;;;;29.72;39.44;100416.84;4961693;28;96824;-45
2023/07/15 08:37:53;;;;;;;1.50;1.40;;;;;;;29.83;39.40;100416.75;4960561;28;97122;-45
2023/07/15 08:40:20;;;;;;;3.13;1.40;;;;;;;29.97;39.02;100408.19;4956477;28;97415;-45
2023/07/15 08:42:46;;;;;;;1.37;1.27;;;;;;;30.09;38.78;100408.75;4959252;28;99114;-43
2023/07/15 08:45:12;;;;;;;1.77;1.40;;;;;;;30.19;38.46;100409.25;4959166;28;97928;-43
2023/07/15 08:47:43;;;;;;;2.40;1.80;;;;;;;30.28;38.38;100417.50;4960320;28;97975;-44
2023/07/15 08:50:11;;;;;;;1.37;1.20;;;;;;;30.38;37.91;100412.31;4961393;28;97160;-44
2023/07/15 08:52:38;;;;;;;1.13;1.03;;;;;;;30.50;38.11;100415.00;4962523;28;96891;-44
2023/07/15 08:55:04;;;;;;;1.37;1.23;;;;;;;30.64;38.18;100415.66;4961827;28;97051;-44
2023/07/15 08:57:32;;;;;;;1.80;1.20;;;;;;;30.74;37.75;100416.13;4962227;28;97113;-44
2023/07/15 08:59:58;;;;;;;1.93;1.30;;;;;;;30.86;37.39;100405.31;4961825;28;97399;-44
2023/07/15 09:02:24;;;;;;;1.37;1.20;;;;;;;30.99;37.46;100403.78;4963361;28;97309;-44
2023/07/15 09:04:49;;;;;;;1.60;1.50;;;;;;;31.11;36.84;100415.66;4958859;28;97251;-44
2023/07/15 09:07:15;;;;;;;1.50;1.40;;;;;;;31.23;36.90;100404.09;4954067;28;96999;-44
2023/07/15 09:09:41;;;;;;;1.43;1.00;;;;;;;31.35;36.59;100408.19;4958568;28;97242;-44
2023/07/15 09:12:09;;;;;;;1.40;1.10;;;;;;;31.46;36.75;100415.81;4962018;28;97405;-43
2023/07/15 09:14:45;;;;;;;2.07;1.40;;;;;;;31.59;35.66;100422.72;4961504;28;97109;-44
2023/07/15 09:17:19;;;;;;;1.53;1.30;;;;;;;31.73;35.69;100420.47;4962300;28;97202;-44
2023/07/15 09:19:46;;;;;;;1.23;1.20;;;;;;;31.84;35.92;100428.06;4960653;28;97234;-44
2023/07/15 09:22:11;;;;;;;1.40;1.30;;;;;;;31.93;35.74;100424.16;4960505;28;97071;-43
2023/07/15 09:24:38;;;;;;;1.30;1.20;;;;;;;32.03;35.53;100418.16;4962414;28;97424;-43
2023/07/15 09:27:04;;;;;;;2.23;1.20;;;;;;;32.14;35.57;100417.94;4961463;28;96999;-45
2023/07/15 09:29:30;;;;;;;1.93;1.30;;;;;;;32.29;35.57;100425.63;4962416;28;97172;-43
2023/07/15 09:31:55;;;;;;;1.13;1.03;;;;;;;32.45;35.40;100422.69;4959564;28;97450;-45
2023/07/15 09:34:24;;;;;;;1.33;1.23;;;;;;;32.58;35.04;100418.94;4959145;28;97385;-44
2023/07/15 09:36:51;;;;;;;1.37;1.27;;;;;;;32.71;35.00;100417.28;4960082;28;99556;-44
2023/07/15 09:39:19;;;;;;;1.83;1.43;;;;;;;32.86;34.89;100413.56;4959431;28;96943;-44
2023/07/15 09:41:58;;;;;;;2.40;1.50;;;;;;;33.05;33.87;100412.84;4961112;28;97445;-44
2023/07/15 09:44:44;;;;;;;3.33;1.20;;;;;;;33.13;33.37;100413.16;4961609;28;97512;-45
2023/07/15 09:47:09;;;;;;;1.10;0.97;;;;;;;33.17;34.55;100424.72;4960756;28;97219;-44
2023/07/15 09:49:35;;;;;;;1.30;1.10;;;;;;;33.14;33.92;100426.03;4961571;28;97033;-44
2023/07/15 09:52:03;;;;;;;0.80;0.77;;;;;;;33.06;34.23;100428.59;4953421;28;97515;-45
2023/07/15 09:54:31;;;;;;;1.20;1.10;;;;;;;32.95;34.07;100435.28;4956474;28;97872;-45
2023/07/15 09:57:04;;;;;;;2.57;1.10;;;;;;;32.88;34.03;100433.59;4959048;28;98999;-45
2023/07/15 09:59:38;;;;;;;1.50;1.03;;;;;;;32.89;33.45;100435.06;4960371;28;97189;-43
2023/07/15 10:02:11;;;;;;;1.20;1.10;;;;;;;32.86;34.39;100430.66;4960294;28;97130;-44
2023/07/15 10:04:43;;;;;;;1.97;1.67;;;;;;;32.84;34.78;100433.44;4961287;28;97189;-45
2023/07/15 10:07:09;;;;;;;1.60;1.50;;;;;;;32.80;34.49;100445.44;4960677;28;97245;-44
2023/07/15 10:09:35;;;;;;;1.30;1.20;;;;;;;32.82;34.40;100444.78;4961297;28;97227;-44
2023/07/15 10:12:02;;;;;;;1.23;1.13;;;;;;;32.96;34.77;100445.31;4961105;28;97174;-45
2023/07/15 10:14:30;;;;;;;1.57;1.47;;;;;;;33.02;34.81;100448.41;4959385;28;97220;-44
2023/07/15 10:17:12;;;;;;;1.93;1.20;;;;;;;33.00;33.89;100459.75;4960446;28;97188;-45
2023/07/15 10:19:46;;;;;;;1.60;1.50;;;;;;;33.00;34.49;100457.63;4961293;28;96835;-44
2023/07/15 10:22:13;;;;;;;2.00;1.10;;;;;;;33.00;34.71;100462.59;4961147;28;97655;-44
2023/07/15 10:24:43;;;;;;;1.40;1.30;;;;;;;33.03;34.93;100469.81;4960113;28;96955;-45
2023/07/15 10:27:11;;;;;;;1.30;1.20;;;;;;;33.03;35.04;100461.25;4959050;28;97303;-44
2023/07/15 10:29:40;;;;;;;1.30;1.20;;;;;;;33.05;34.31;100467.78;4959225;28;96952;-45
2023/07/15 10:32:16;;;;;;;1.70;1.60;;;;;;;33.01;33.76;100456.22;4959970;28;97277;-44
2023/07/15 10:34:48;;;;;;;3.60;1.23;;;;;;;32.99;34.01;100472.50;4960166;28;97399;-45
2023/07/15 10:37:15;;;;;;;1.23;1.10;;;;;;;33.10;34.45;100469.38;4959365;28;97238;-45
2023/07/15 10:39:40;;;;;;;1.50;1.40;;;;;;;33.20;33.98;100469.03;4961637;28;97412;-45
2023/07/15 10:42:08;;;;;;;4.17;1.87;;;;;;;33.26;34.07;100477.81;4961605;28;97478;-44
2023/07/15 10:44:45;;;;;;;1.10;0.90;;;;;;;33.27;33.53;100484.97;4960304;28;97141;-46
2023/07/15 10:47:10;;;;;;;1.57;1.33;;;;;;;33.19;34.32;100490.38;4960181;28;97646;-45
2023/07/15 10:49:36;;;;;;;1.97;1.47;;;;;;;33.12;34.34;100502.94;4960352;28;97293;-44
2023/07/15 10:52:05;;;;;;;1.30;1.20;;;;;;;33.06;33.88;100506.31;4959747;28;97068;-45
2023/07/15 10:54:34;;;;;;;1.37;1.20;;;;;;;33.00;34.06;100516.75;4959723;28;97959;-44
2023/07/15 10:57:09;;;;;;;1.90;1.37;;;;;;;32.99;33.93;100509.56;4958622;28;97144;-45
2023/07/15 10:59:38;;;;;;;1.40;1.30;;;;;;;32.96;34.15;100505.88;4960368;28;97049;-45
2023/07/15 11:02:04;;;;;;;2.83;1.73;;;;;;;32.91;34.26;100520.66;4960452;28;96857;-44
2023/07/15 11:04:30;;;;;;;1.30;1.20;;;;;;;32.81;34.24;100518.13;4959090;28;97138;-45
2023/07/15 11:07:03;;;;;;;3.77;1.20;;;;;;;32.71;33.44;100517.03;4959298;28;96927;-45
2023/07/15 11:09:29;;;;;;;1.80;1.50;;;;;;;32.61;34.47;100519.47;4959833;28;96591;-45
2023/07/15 11:11:55;;;;;;;1.67;1.30;;;;;;;32.54;34.46;100527.06;4960480;28;96977;-45
2023/07/15 11:14:29;;;;;;;2.83;1.10;;;;;;;32.42;34.01;100529.38;4957549;28;97495;-45
2023/07/15 11:16:56;;;;;;;1.80;1.40;;;;;;;32.39;34.70;100537.09;4958704;28;97237;-45
2023/07/15 11:19:23;;;;;;;1.67;1.50;;;;;;;32.37;34.93;100533.47;4958196;28;96702;-45
2023/07/15 11:21:50;;;;;;;2.03;1.57;;;;;;;32.33;34.81;100542.56;4961348;28;97266;-45